KCKB/CKB METAR and TAF weather

Enter ICAO airport designator
Station Type Date Time Source
KCKB METAR 2021/06/24 05:53 UTC NOAA

KCKB 240553Z AUTO 30003KT 10SM CLR 13/11 A3025 RMK AO2 SLP233 T01330111 10211 20122 50000


Station Type Date Time Source
KCKB Decoded METAR 2021/06/24 05:53 UTC NOAA

HARRISON/MARION REGIONAL, WV, United States (KCKB) 39-18N 080-13W 360M
Jun 24, 2021 - 01:53 AM EDT / 2021.06.24 0553 UTC
Wind: from the WNW (300 degrees) at 3 MPH (3 KT):0
Visibility: 10 mile(s):0
Sky conditions: clear
Temperature: 55.9 F (13.3 C)
Dew Point: 52.0 F (11.1 C)
Relative Humidity: 86%
Pressure (altimeter): 30.25 in. Hg (1024 hPa)
Pressure tendency: 0.00 inches (0.0 hPa) higher than three hours ago
ob: KCKB 240553Z AUTO 30003KT 10SM CLR 13/11 A3025 RMK AO2 SLP233 T01330111 10211 20122 50000
cycle: 6

Station Type Date Time Source
KCKB TAF 2021/06/24 06:22 UTC NOAA

TAF KCKB 240520Z 2406/2506 00000KT P6SM SCT250
FM240900 00000KT 5SM BR SCT002
FM241200 00000KT P6SM FEW200
FM242200 18007KT P6SM FEW200

Example: see airport list